createdAt,value
2019-05-12T17:46:13.558Z,8.84
2019-05-12T17:48:42.715Z,8.96
2019-05-12T17:51:08.354Z,8.91
2019-05-12T17:53:37.661Z,8.93
2019-05-12T17:56:04.909Z,8.89
2019-05-12T17:58:36.147Z,8.85
2019-05-12T18:01:00.776Z,8.85
2019-05-12T18:03:27.800Z,8.85
2019-05-12T18:05:54.746Z,8.93
2019-05-12T18:08:23.960Z,8.90
2019-05-12T18:10:51.502Z,8.86
2019-05-12T18:13:23.020Z,8.76
2019-05-12T18:15:47.424Z,8.82
2019-05-12T18:18:17.384Z,8.83
2019-05-12T18:20:44.545Z,8.92
2019-05-12T18:23:13.472Z,8.96
2019-05-12T18:25:40.536Z,8.73
2019-05-12T18:28:07.385Z,8.82
2019-05-12T18:30:34.630Z,8.85
2019-05-12T18:33:08.678Z,8.86
2019-05-12T18:35:30.393Z,8.79
2019-05-12T18:37:57.417Z,8.81
2019-05-12T18:40:27.532Z,8.81
2019-05-12T18:42:53.476Z,8.79
2019-05-12T18:45:23.784Z,8.81
2019-05-12T18:47:50.269Z,8.83
2019-05-12T18:50:20.798Z,8.87
2019-05-12T18:52:47.288Z,8.84
2019-05-12T18:55:15.798Z,8.86
2019-05-12T18:57:46.189Z,8.85
2019-05-12T19:00:16.089Z,8.78
2019-05-12T19:02:44.263Z,8.76
2019-05-12T19:05:15.246Z,8.77
2019-05-12T19:07:40.658Z,8.67
2019-05-12T19:10:07.739Z,8.71
2019-05-12T19:12:35.623Z,8.70
2019-05-12T19:15:04.674Z,8.70
2019-05-12T19:17:33.855Z,8.75
2019-05-12T19:20:01.642Z,8.77
2019-05-12T19:22:28.734Z,8.79
2019-05-12T19:24:59.677Z,8.75
2019-05-12T19:27:24.694Z,8.78
2019-05-12T19:29:54.416Z,8.72
2019-05-12T19:32:20.676Z,8.72
2019-05-12T19:34:47.685Z,8.76
2019-05-12T19:37:19.449Z,8.83
2019-05-12T19:39:44.530Z,8.80
2019-05-12T19:42:18.626Z,8.72
2019-05-12T19:44:40.297Z,8.77
2019-05-12T19:47:07.336Z,8.77
2019-05-12T19:49:46.892Z,8.81
2019-05-12T19:52:03.688Z,8.79
2019-05-12T19:54:36.307Z,8.61
2019-05-12T19:57:00.010Z,8.68
2019-05-12T19:59:26.640Z,8.71
2019-05-12T20:01:54.113Z,8.69
2019-05-12T20:04:31.865Z,8.64
2019-05-12T20:06:50.289Z,8.64
2019-05-12T20:09:17.282Z,8.66
2019-05-12T20:11:46.642Z,8.71
2019-05-12T20:14:16.663Z,8.72
2019-05-12T20:16:43.947Z,8.52
2019-05-12T20:19:10.751Z,8.55
2019-05-12T20:21:38.103Z,8.54
2019-05-12T20:24:05.253Z,8.53
2019-05-12T20:26:33.033Z,8.56
2019-05-12T20:29:04.399Z,8.49
2019-05-12T20:31:36.828Z,8.48
2019-05-12T20:34:04.544Z,8.54
2019-05-12T20:36:28.437Z,8.52
2019-05-12T20:38:55.418Z,8.50
2019-05-12T20:41:26.555Z,8.43
2019-05-12T20:43:52.174Z,8.52
2019-05-12T20:46:21.910Z,8.54
2019-05-12T20:48:47.714Z,8.54
2019-05-12T20:51:20.153Z,8.54
2019-05-12T20:53:44.715Z,8.54
2019-05-12T20:56:12.191Z,8.48
2019-05-12T20:58:43.694Z,8.48
2019-05-12T21:01:09.090Z,8.51
2019-05-12T21:03:39.940Z,8.54
2019-05-12T21:06:05.358Z,8.57
2019-05-12T21:08:33.879Z,8.47
2019-05-12T21:11:00.768Z,8.50
2019-05-12T21:13:31.855Z,8.54
2019-05-12T21:15:56.393Z,8.54
2019-05-12T21:18:23.743Z,8.46
2019-05-12T21:20:52.178Z,8.43
2019-05-12T21:23:19.381Z,8.53
2019-05-12T21:25:52.562Z,8.58
2019-05-12T21:28:15.044Z,8.58
2019-05-12T21:30:42.315Z,8.59
2019-05-12T21:33:10.672Z,8.55
2019-05-12T21:35:40.513Z,8.55
2019-05-12T21:38:06.390Z,8.55
2019-05-12T21:40:35.072Z,8.57
2019-05-12T21:43:04.147Z,8.58
2019-05-12T21:45:33.862Z,8.60
2019-05-12T21:48:00.815Z,8.61
2019-05-12T21:50:32.397Z,8.62
2019-05-12T21:52:59.794Z,8.62
2019-05-12T21:55:26.501Z,8.61
2019-05-12T21:57:53.932Z,8.58
2019-05-12T22:00:25.027Z,8.54
2019-05-12T22:02:56.474Z,8.50
2019-05-12T22:05:46.693Z,8.55
2019-05-12T22:07:51.363Z,8.51
2019-05-12T22:10:25.231Z,8.45
2019-05-12T22:12:47.583Z,8.38
2019-05-12T22:15:21.327Z,8.36
2019-05-12T22:18:00.868Z,8.36
2019-05-12T22:20:32.689Z,8.31
2019-05-12T22:23:00.563Z,8.21
2019-05-12T22:25:28.641Z,8.16
2019-05-12T22:27:59.160Z,8.19
2019-05-12T22:30:24.522Z,8.19
2019-05-12T22:32:51.511Z,8.20
2019-05-12T22:35:21.965Z,8.22
2019-05-12T22:37:46.924Z,8.16
2019-05-12T22:40:19.092Z,8.11
2019-05-12T22:42:44.483Z,8.03
2019-05-12T22:45:15.135Z,8.14
2019-05-12T22:47:41.073Z,8.14
2019-05-12T22:50:08.434Z,8.10
2019-05-12T22:52:38.985Z,8.07
2019-05-12T22:55:05.446Z,8.10
2019-05-12T22:57:38.293Z,8.03
2019-05-12T23:00:00.821Z,7.91
2019-05-12T23:02:31.147Z,7.94
2019-05-12T23:04:58.195Z,7.97
2019-05-12T23:07:29.531Z,7.96
2019-05-12T23:09:53.982Z,7.99
2019-05-12T23:12:20.705Z,7.91
2019-05-12T23:14:48.114Z,7.88
2019-05-12T23:17:15.316Z,7.87
2019-05-12T23:19:51.030Z,7.91
2019-05-12T23:22:10.954Z,7.85
2019-05-12T23:24:40.746Z,7.89
2019-05-12T23:27:08.892Z,7.97
2019-05-12T23:29:34.834Z,7.96
2019-05-12T23:32:07.440Z,8.03
2019-05-12T23:34:30.454Z,8.03
2019-05-12T23:36:59.997Z,8.02
2019-05-12T23:39:26.199Z,7.98
2019-05-12T23:41:53.752Z,8.04
2019-05-12T23:44:20.943Z,8.04
2019-05-12T23:46:48.274Z,8.08
2019-05-12T23:49:15.238Z,8.09
2019-05-12T23:51:43.834Z,8.05
2019-05-12T23:54:10.934Z,7.97
2019-05-12T23:56:38.003Z,7.89
2019-05-12T23:59:04.865Z,7.96
